sensor_id;sensor_type;location;lat;lon;timestamp;pressure;altitude;pressure_sealevel;temperature;humidity
85105;BME280;75457;53.198;45.008;2024-02-04T00:01:40;97802.63;;;1.89;52.81
85105;BME280;75457;53.198;45.008;2024-02-04T00:04:06;97786.75;;;1.87;53.39
85105;BME280;75457;53.198;45.008;2024-02-04T00:06:32;97782.34;;;1.77;54.03
85105;BME280;75457;53.198;45.008;2024-02-04T00:08:58;97781.00;;;1.66;53.44
85105;BME280;75457;53.198;45.008;2024-02-04T00:11:25;97771.19;;;1.72;53.66
85105;BME280;75457;53.198;45.008;2024-02-04T00:13:50;97768.06;;;1.73;54.53
85105;BME280;75457;53.198;45.008;2024-02-04T00:16:16;97770.59;;;1.64;54.53
85105;BME280;75457;53.198;45.008;2024-02-04T00:18:41;97756.94;;;1.68;54.30
85105;BME280;75457;53.198;45.008;2024-02-04T00:21:07;97757.75;;;1.84;54.22
85105;BME280;75457;53.198;45.008;2024-02-04T00:23:33;97754.19;;;1.87;54.28
85105;BME280;75457;53.198;45.008;2024-02-04T00:25:58;97750.81;;;1.83;54.77
85105;BME280;75457;53.198;45.008;2024-02-04T00:28:25;97743.13;;;1.98;53.67
85105;BME280;75457;53.198;45.008;2024-02-04T00:30:51;97743.88;;;1.98;54.35
85105;BME280;75457;53.198;45.008;2024-02-04T00:33:16;97742.19;;;2.04;53.51
85105;BME280;75457;53.198;45.008;2024-02-04T00:35:42;97736.53;;;2.15;53.96
85105;BME280;75457;53.198;45.008;2024-02-04T00:38:07;97730.34;;;2.30;53.29
85105;BME280;75457;53.198;45.008;2024-02-04T00:40:33;97720.13;;;2.34;53.06
85105;BME280;75457;53.198;45.008;2024-02-04T00:42:58;97724.81;;;2.34;52.94
85105;BME280;75457;53.198;45.008;2024-02-04T00:45:25;97718.44;;;2.40;53.33
85105;BME280;75457;53.198;45.008;2024-02-04T00:47:51;97710.97;;;2.44;54.11
85105;BME280;75457;53.198;45.008;2024-02-04T00:50:16;97710.19;;;2.60;52.86
85105;BME280;75457;53.198;45.008;2024-02-04T00:52:42;97710.09;;;2.63;53.79
85105;BME280;75457;53.198;45.008;2024-02-04T00:55:08;97691.25;;;2.72;53.36
85105;BME280;75457;53.198;45.008;2024-02-04T00:57:34;97691.91;;;2.76;52.67
85105;BME280;75457;53.198;45.008;2024-02-04T00:59:59;97699.72;;;2.74;53.36
85105;BME280;75457;53.198;45.008;2024-02-04T01:02:26;97693.16;;;2.88;53.96
85105;BME280;75457;53.198;45.008;2024-02-04T01:04:52;97696.47;;;2.95;53.82
85105;BME280;75457;53.198;45.008;2024-02-04T01:07:17;97684.97;;;3.04;53.83
85105;BME280;75457;53.198;45.008;2024-02-04T01:09:43;97675.53;;;3.08;54.01
85105;BME280;75457;53.198;45.008;2024-02-04T01:12:08;97668.38;;;3.14;53.37
85105;BME280;75457;53.198;45.008;2024-02-04T01:14:34;97656.28;;;3.15;53.47
85105;BME280;75457;53.198;45.008;2024-02-04T01:17:00;97658.34;;;3.11;53.56
85105;BME280;75457;53.198;45.008;2024-02-04T01:19:26;97662.25;;;3.10;53.72
85105;BME280;75457;53.198;45.008;2024-02-04T01:21:52;97659.22;;;3.08;54.80
85105;BME280;75457;53.198;45.008;2024-02-04T01:24:18;97659.41;;;3.01;54.31
85105;BME280;75457;53.198;45.008;2024-02-04T01:26:43;97660.63;;;3.13;54.66
85105;BME280;75457;53.198;45.008;2024-02-04T01:29:09;97648.34;;;3.21;55.34
85105;BME280;75457;53.198;45.008;2024-02-04T01:31:34;97648.38;;;3.33;54.98
85105;BME280;75457;53.198;45.008;2024-02-04T01:34:00;97643.09;;;3.42;54.41
85105;BME280;75457;53.198;45.008;2024-02-04T01:36:27;97634.91;;;3.42;55.28
85105;BME280;75457;53.198;45.008;2024-02-04T01:38:52;97638.06;;;3.41;55.00
85105;BME280;75457;53.198;45.008;2024-02-04T01:41:18;97633.50;;;3.50;55.41
85105;BME280;75457;53.198;45.008;2024-02-04T01:43:44;97625.91;;;3.58;54.36
85105;BME280;75457;53.198;45.008;2024-02-04T01:46:10;97621.75;;;3.66;55.11
85105;BME280;75457;53.198;45.008;2024-02-04T01:48:36;97617.94;;;3.76;54.83
85105;BME280;75457;53.198;45.008;2024-02-04T01:51:02;97624.50;;;3.78;54.76
85105;BME280;75457;53.198;45.008;2024-02-04T01:53:32;97620.66;;;3.88;54.67
85105;BME280;75457;53.198;45.008;2024-02-04T01:55:59;97602.13;;;3.96;54.30
85105;BME280;75457;53.198;45.008;2024-02-04T01:58:25;97591.78;;;4.03;54.29
85105;BME280;75457;53.198;45.008;2024-02-04T02:00:51;97585.44;;;4.06;54.30
85105;BME280;75457;53.198;45.008;2024-02-04T02:03:17;97599.41;;;4.08;54.38
85105;BME280;75457;53.198;45.008;2024-02-04T02:05:42;97591.13;;;4.12;54.39
85105;BME280;75457;53.198;45.008;2024-02-04T02:08:09;97583.13;;;4.17;54.44
85105;BME280;75457;53.198;45.008;2024-02-04T02:10:36;97575.84;;;4.14;54.30
85105;BME280;75457;53.198;45.008;2024-02-04T02:13:07;97577.13;;;4.22;54.59
85105;BME280;75457;53.198;45.008;2024-02-04T02:15:37;97571.50;;;4.17;54.45
85105;BME280;75457;53.198;45.008;2024-02-04T02:18:07;97569.63;;;4.14;54.50
85105;BME280;75457;53.198;45.008;2024-02-04T02:20:55;97563.94;;;4.21;54.33
85105;BME280;75457;53.198;45.008;2024-02-04T02:23:30;97559.94;;;4.13;54.55
85105;BME280;75457;53.198;45.008;2024-02-04T02:25:57;97566.13;;;4.13;54.33
85105;BME280;75457;53.198;45.008;2024-02-04T02:28:23;97560.81;;;4.10;54.75
85105;BME280;75457;53.198;45.008;2024-02-04T02:30:49;97560.38;;;4.11;54.54
85105;BME280;75457;53.198;45.008;2024-02-04T02:33:15;97559.38;;;4.18;54.06
85105;BME280;75457;53.198;45.008;2024-02-04T02:35:40;97545.22;;;4.23;54.83
85105;BME280;75457;53.198;45.008;2024-02-04T02:38:11;97555.88;;;4.30;54.67
85105;BME280;75457;53.198;45.008;2024-02-04T02:40:45;97547.22;;;4.31;54.36
85105;BME280;75457;53.198;45.008;2024-02-04T02:43:14;97547.88;;;4.35;54.71
85105;BME280;75457;53.198;45.008;2024-02-04T02:45:42;97535.72;;;4.27;54.99
85105;BME280;75457;53.198;45.008;2024-02-04T02:48:08;97542.25;;;4.30;54.93
85105;BME280;75457;53.198;45.008;2024-02-04T02:50:35;97540.78;;;4.38;55.10
85105;BME280;75457;53.198;45.008;2024-02-04T02:53:01;97529.13;;;4.37;55.31
85105;BME280;75457;53.198;45.008;2024-02-04T02:55:26;97536.66;;;4.33;55.42
85105;BME280;75457;53.198;45.008;2024-02-04T02:57:52;97528.53;;;4.21;55.70
85105;BME280;75457;53.198;45.008;2024-02-04T03:00:19;97526.88;;;4.23;56.26
85105;BME280;75457;53.198;45.008;2024-02-04T03:02:45;97522.47;;;4.38;55.60
85105;BME280;75457;53.198;45.008;2024-02-04T03:05:11;97509.34;;;4.46;55.85
85105;BME280;75457;53.198;45.008;2024-02-04T03:07:37;97506.31;;;4.44;56.03
85105;BME280;75457;53.198;45.008;2024-02-04T03:10:03;97502.50;;;4.41;56.14
85105;BME280;75457;53.198;45.008;2024-02-04T03:12:29;97501.38;;;4.51;55.88
85105;BME280;75457;53.198;45.008;2024-02-04T03:14:54;97499.66;;;4.45;56.43
85105;BME280;75457;53.198;45.008;2024-02-04T03:17:21;97496.75;;;4.39;56.96
85105;BME280;75457;53.198;45.008;2024-02-04T03:19:47;97499.94;;;4.25;56.67
85105;BME280;75457;53.198;45.008;2024-02-04T03:22:13;97488.31;;;4.25;57.22
85105;BME280;75457;53.198;45.008;2024-02-04T03:24:38;97481.28;;;4.36;57.41
85105;BME280;75457;53.198;45.008;2024-02-04T03:27:04;97476.72;;;4.33;56.96
85105;BME280;75457;53.198;45.008;2024-02-04T03:29:29;97476.72;;;4.33;57.25
85105;BME280;75457;53.198;45.008;2024-02-04T03:31:55;97469.81;;;4.41;56.92
85105;BME280;75457;53.198;45.008;2024-02-04T03:34:22;97469.63;;;4.36;57.48
85105;BME280;75457;53.198;45.008;2024-02-04T03:36:48;97462.19;;;4.36;57.45
85105;BME280;75457;53.198;45.008;2024-02-04T03:39:13;97461.59;;;4.32;57.64
85105;BME280;75457;53.198;45.008;2024-02-04T03:41:39;97467.91;;;4.29;57.19
85105;BME280;75457;53.198;45.008;2024-02-04T03:44:04;97456.97;;;4.20;58.20
85105;BME280;75457;53.198;45.008;2024-02-04T03:46:30;97456.31;;;4.16;58.38
85105;BME280;75457;53.198;45.008;2024-02-04T03:48:56;97455.50;;;4.07;58.61
85105;BME280;75457;53.198;45.008;2024-02-04T03:51:22;97439.53;;;3.96;58.24
85105;BME280;75457;53.198;45.008;2024-02-04T03:53:49;97446.47;;;3.97;59.11
85105;BME280;75457;53.198;45.008;2024-02-04T03:56:15;97452.91;;;3.91;59.02
85105;BME280;75457;53.198;45.008;2024-02-04T03:58:41;97446.47;;;3.97;58.86
85105;BME280;75457;53.198;45.008;2024-02-04T04:01:09;97444.78;;;4.12;58.68
85105;BME280;75457;53.198;45.008;2024-02-04T04:03:35;97439.78;;;4.32;58.64
85105;BME280;75457;53.198;45.008;2024-02-04T04:06:01;97431.38;;;4.48;58.15
85105;BME280;75457;53.198;45.008;2024-02-04T04:08:28;97436.66;;;4.43;58.37
85105;BME280;75457;53.198;45.008;2024-02-04T04:10:53;97431.97;;;4.43;58.01
85105;BME280;75457;53.198;45.008;2024-02-04T04:13:19;97421.53;;;4.42;58.00
85105;BME280;75457;53.198;45.008;2024-02-04T04:15:44;97428.94;;;4.41;58.66
85105;BME280;75457;53.198;45.008;2024-02-04T04:18:10;97420.50;;;4.48;58.10
85105;BME280;75457;53.198;45.008;2024-02-04T04:20:35;97413.63;;;4.65;57.49
85105;BME280;75457;53.198;45.008;2024-02-04T04:23:01;97409.66;;;4.57;57.69
85105;BME280;75457;53.198;45.008;2024-02-04T04:25:28;97411.34;;;4.64;58.19
85105;BME280;75457;53.198;45.008;2024-02-04T04:27:54;97411.59;;;4.57;58.11
85105;BME280;75457;53.198;45.008;2024-02-04T04:30:19;97412.06;;;4.55;58.53
85105;BME280;75457;53.198;45.008;2024-02-04T04:32:45;97416.88;;;4.51;58.91
85105;BME280;75457;53.198;45.008;2024-02-04T04:35:10;97415.38;;;4.50;58.76
85105;BME280;75457;53.198;45.008;2024-02-04T04:37:36;97408.28;;;4.53;58.81
85105;BME280;75457;53.198;45.008;2024-02-04T04:40:01;97403.00;;;4.58;58.90
85105;BME280;75457;53.198;45.008;2024-02-04T04:42:28;97394.88;;;4.67;58.48
85105;BME280;75457;53.198;45.008;2024-02-04T04:47:38;97394.69;;;4.62;58.55
85105;BME280;75457;53.198;45.008;2024-02-04T04:50:05;97386.06;;;4.63;58.40
85105;BME280;75457;53.198;45.008;2024-02-04T04:52:30;97390.50;;;4.79;58.37
85105;BME280;75457;53.198;45.008;2024-02-04T04:54:56;97371.59;;;4.84;58.36
85105;BME280;75457;53.198;45.008;2024-02-04T04:57:22;97367.69;;;4.94;57.76
85105;BME280;75457;53.198;45.008;2024-02-04T04:59:49;97361.28;;;4.79;58.22
85105;BME280;75457;53.198;45.008;2024-02-04T05:02:15;97358.22;;;4.77;58.38
85105;BME280;75457;53.198;45.008;2024-02-04T05:04:43;97361.88;;;4.74;58.46
85105;BME280;75457;53.198;45.008;2024-02-04T05:07:08;97353.06;;;4.70;58.48
85105;BME280;75457;53.198;45.008;2024-02-04T05:09:34;97350.19;;;4.74;58.51
85105;BME280;75457;53.198;45.008;2024-02-04T05:11:59;97340.66;;;4.78;58.33
85105;BME280;75457;53.198;45.008;2024-02-04T05:14:25;97355.03;;;4.70;59.03
85105;BME280;75457;53.198;45.008;2024-02-04T05:16:52;97341.94;;;4.56;59.21
85105;BME280;75457;53.198;45.008;2024-02-04T05:19:17;97328.38;;;4.65;59.42
85105;BME280;75457;53.198;45.008;2024-02-04T05:21:43;97320.78;;;4.69;59.15
85105;BME280;75457;53.198;45.008;2024-02-04T05:24:08;97323.72;;;4.74;58.69
85105;BME280;75457;53.198;45.008;2024-02-04T05:26:34;97323.41;;;4.81;58.59
85105;BME280;75457;53.198;45.008;2024-02-04T05:28:59;97331.94;;;4.92;58.72
85105;BME280;75457;53.198;45.008;2024-02-04T05:31:25;97325.75;;;5.01;58.24
85105;BME280;75457;53.198;45.008;2024-02-04T05:33:52;97320.44;;;4.97;58.71
85105;BME280;75457;53.198;45.008;2024-02-04T05:36:18;97319.66;;;4.97;58.69
85105;BME280;75457;53.198;45.008;2024-02-04T05:38:45;97305.41;;;4.93;59.01
85105;BME280;75457;53.198;45.008;2024-02-04T05:41:10;97301.16;;;4.92;58.86
85105;BME280;75457;53.198;45.008;2024-02-04T05:43:36;97292.25;;;4.91;58.83
85105;BME280;75457;53.198;45.008;2024-02-04T05:46:01;97282.22;;;4.88;59.24
85105;BME280;75457;53.198;45.008;2024-02-04T05:48:27;97291.47;;;4.91;59.45
85105;BME280;75457;53.198;45.008;2024-02-04T05:50:54;97285.25;;;4.81;59.37
85105;BME280;75457;53.198;45.008;2024-02-04T05:53:19;97285.84;;;4.76;59.90
85105;BME280;75457;53.198;45.008;2024-02-04T05:55:46;97292.25;;;4.91;59.41
85105;BME280;75457;53.198;45.008;2024-02-04T05:58:11;97275.91;;;5.09;59.12
85105;BME280;75457;53.198;45.008;2024-02-04T06:00:37;97266.19;;;5.26;58.55
85105;BME280;75457;53.198;45.008;2024-02-04T06:03:03;97266.81;;;5.30;58.56
85105;BME280;75457;53.198;45.008;2024-02-04T06:05:29;97254.09;;;5.27;58.73
85105;BME280;75457;53.198;45.008;2024-02-04T06:07:56;97249.69;;;5.30;59.04
85105;BME280;75457;53.198;45.008;2024-02-04T06:10:21;97248.63;;;5.36;58.75
85105;BME280;75457;53.198;45.008;2024-02-04T06:12:47;97243.44;;;5.38;58.64
85105;BME280;75457;53.198;45.008;2024-02-04T06:15:13;97257.41;;;5.31;58.85
85105;BME280;75457;53.198;45.008;2024-02-04T06:17:38;97241.63;;;5.26;58.76
85105;BME280;75457;53.198;45.008;2024-02-04T06:20:05;97244.84;;;5.43;58.40
85105;BME280;75457;53.198;45.008;2024-02-04T06:22:30;97232.97;;;5.46;58.55
85105;BME280;75457;53.198;45.008;2024-02-04T06:24:57;97218.84;;;5.56;58.25
85105;BME280;75457;53.198;45.008;2024-02-04T06:27:23;97217.22;;;5.50;58.21
85105;BME280;75457;53.198;45.008;2024-02-04T06:29:48;97207.81;;;5.51;58.35
85105;BME280;75457;53.198;45.008;2024-02-04T06:32:14;97193.72;;;5.43;58.97
85105;BME280;75457;53.198;45.008;2024-02-04T06:34:39;97201.91;;;5.52;58.40
85105;BME280;75457;53.198;45.008;2024-02-04T06:37:05;97201.56;;;5.59;58.19
85105;BME280;75457;53.198;45.008;2024-02-04T06:39:31;97200.56;;;5.48;58.24
85105;BME280;75457;53.198;45.008;2024-02-04T06:41:58;97196.00;;;5.45;58.67
85105;BME280;75457;53.198;45.008;2024-02-04T06:44:23;97211.31;;;5.42;58.72
85105;BME280;75457;53.198;45.008;2024-02-04T06:46:49;97194.47;;;5.44;58.38
85105;BME280;75457;53.198;45.008;2024-02-04T06:49:14;97187.66;;;5.39;59.18
85105;BME280;75457;53.198;45.008;2024-02-04T06:51:40;97194.19;;;5.33;58.94
85105;BME280;75457;53.198;45.008;2024-02-04T06:54:05;97187.50;;;5.43;58.63
85105;BME280;75457;53.198;45.008;2024-02-04T06:56:31;97187.06;;;5.35;59.59
85105;BME280;75457;53.198;45.008;2024-02-04T06:58:58;97183.28;;;5.33;59.58
85105;BME280;75457;53.198;45.008;2024-02-04T07:01:24;97181.13;;;5.46;58.91
85105;BME280;75457;53.198;45.008;2024-02-04T07:03:49;97179.59;;;5.54;58.34
85105;BME280;75457;53.198;45.008;2024-02-04T07:06:15;97179.41;;;5.66;58.82
85105;BME280;75457;53.198;45.008;2024-02-04T07:08:40;97165.13;;;5.71;58.69
85105;BME280;75457;53.198;45.008;2024-02-04T07:11:06;97151.78;;;5.82;58.38
85105;BME280;75457;53.198;45.008;2024-02-04T07:13:31;97142.47;;;5.98;58.39
85105;BME280;75457;53.198;45.008;2024-02-04T07:15:58;97114.25;;;5.92;58.63
85105;BME280;75457;53.198;45.008;2024-02-04T07:18:24;97125.19;;;5.92;58.67
85105;BME280;75457;53.198;45.008;2024-02-04T07:20:49;97128.97;;;5.94;58.60
85105;BME280;75457;53.198;45.008;2024-02-04T07:23:15;97139.22;;;6.08;58.36
85105;BME280;75457;53.198;45.008;2024-02-04T07:25:41;97151.66;;;6.09;58.03
85105;BME280;75457;53.198;45.008;2024-02-04T07:28:06;97144.03;;;6.22;57.69
85105;BME280;75457;53.198;45.008;2024-02-04T07:30:32;97153.41;;;6.21;57.97
85105;BME280;75457;53.198;45.008;2024-02-04T07:32:59;97148.00;;;6.12;57.87
85105;BME280;75457;53.198;45.008;2024-02-04T07:35:24;97146.16;;;6.18;58.17
85105;BME280;75457;53.198;45.008;2024-02-04T07:37:52;97132.50;;;6.18;57.76
85105;BME280;75457;53.198;45.008;2024-02-04T07:40:17;97136.19;;;6.06;58.22
85105;BME280;75457;53.198;45.008;2024-02-04T07:42:43;97123.88;;;6.11;58.49
85105;BME280;75457;53.198;45.008;2024-02-04T07:45:09;97113.84;;;5.84;58.64
85105;BME280;75457;53.198;45.008;2024-02-04T07:47:35;97112.50;;;5.71;59.54
85105;BME280;75457;53.198;45.008;2024-02-04T07:50:02;97104.91;;;5.75;59.54
85105;BME280;75457;53.198;45.008;2024-02-04T07:52:28;97106.25;;;5.88;59.24
85105;BME280;75457;53.198;45.008;2024-02-04T07:54:55;97109.44;;;5.78;59.41
85105;BME280;75457;53.198;45.008;2024-02-04T07:57:20;97114.75;;;5.72;59.72
85105;BME280;75457;53.198;45.008;2024-02-04T07:59:46;97108.84;;;5.74;59.76
85105;BME280;75457;53.198;45.008;2024-02-04T08:02:11;97109.88;;;5.85;59.97
85105;BME280;75457;53.198;45.008;2024-02-04T08:04:40;97101.31;;;6.01;59.84
85105;BME280;75457;53.198;45.008;2024-02-04T08:07:07;97094.75;;;6.08;59.30
85105;BME280;75457;53.198;45.008;2024-02-04T08:09:32;97104.66;;;5.96;59.76
85105;BME280;75457;53.198;45.008;2024-02-04T08:11:58;97094.94;;;6.04;59.74
85105;BME280;75457;53.198;45.008;2024-02-04T08:14:23;97090.44;;;6.16;59.55
85105;BME280;75457;53.198;45.008;2024-02-04T08:16:49;97083.91;;;6.22;59.26
85105;BME280;75457;53.198;45.008;2024-02-04T08:19:14;97080.22;;;6.25;59.13
85105;BME280;75457;53.198;45.008;2024-02-04T08:21:40;97076.56;;;6.28;59.77
85105;BME280;75457;53.198;45.008;2024-02-04T08:24:07;97067.69;;;6.33;59.06
85105;BME280;75457;53.198;45.008;2024-02-04T08:26:33;97065.84;;;6.39;59.62
85105;BME280;75457;53.198;45.008;2024-02-04T08:28:59;97072.25;;;6.36;59.76
85105;BME280;75457;53.198;45.008;2024-02-04T08:31:24;97068.97;;;6.47;59.70
85105;BME280;75457;53.198;45.008;2024-02-04T08:33:50;97072.88;;;6.55;59.06
85105;BME280;75457;53.198;45.008;2024-02-04T08:36:15;97060.09;;;6.37;59.95
85105;BME280;75457;53.198;45.008;2024-02-04T08:38:41;97054.94;;;6.54;59.62
85105;BME280;75457;53.198;45.008;2024-02-04T08:41:08;97053.84;;;6.60;59.75
85105;BME280;75457;53.198;45.008;2024-02-04T08:43:34;97049.13;;;6.75;59.12
85105;BME280;75457;53.198;45.008;2024-02-04T08:45:59;97045.38;;;6.87;59.42
85105;BME280;75457;53.198;45.008;2024-02-04T08:48:25;97049.34;;;6.86;58.72
85105;BME280;75457;53.198;45.008;2024-02-04T08:50:50;97041.72;;;6.90;59.38
85105;BME280;75457;53.198;45.008;2024-02-04T08:53:16;97032.84;;;6.95;58.61
85105;BME280;75457;53.198;45.008;2024-02-04T08:55:41;97036.31;;;6.96;59.18
85105;BME280;75457;53.198;45.008;2024-02-04T08:58:08;97035.84;;;6.97;59.55
85105;BME280;75457;53.198;45.008;2024-02-04T09:00:34;97031.22;;;7.03;58.72
85105;BME280;75457;53.198;45.008;2024-02-04T09:02:59;97022.44;;;7.14;58.38
85105;BME280;75457;53.198;45.008;2024-02-04T09:05:25;97022.72;;;7.30;58.91
85105;BME280;75457;53.198;45.008;2024-02-04T09:07:50;97018.50;;;7.29;58.67
85105;BME280;75457;53.198;45.008;2024-02-04T09:10:16;97008.91;;;7.39;58.89
85105;BME280;75457;53.198;45.008;2024-02-04T09:12:42;97009.50;;;7.43;58.96
85105;BME280;75457;53.198;45.008;2024-02-04T09:15:09;96996.94;;;7.37;57.97
85105;BME280;75457;53.198;45.008;2024-02-04T09:17:35;96992.31;;;7.28;58.75
85105;BME280;75457;53.198;45.008;2024-02-04T09:20:00;96987.25;;;7.21;59.47
85105;BME280;75457;53.198;45.008;2024-02-04T09:22:26;96988.53;;;7.26;58.89
85105;BME280;75457;53.198;45.008;2024-02-04T09:24:52;96983.03;;;7.40;58.91
85105;BME280;75457;53.198;45.008;2024-02-04T09:27:17;96983.88;;;7.46;58.10
85105;BME280;75457;53.198;45.008;2024-02-04T09:29:43;96982.91;;;7.29;59.32
85105;BME280;75457;53.198;45.008;2024-02-04T09:32:10;96967.34;;;7.21;59.16
85105;BME280;75457;53.198;45.008;2024-02-04T09:34:35;96966.75;;;7.31;58.55
85105;BME280;75457;53.198;45.008;2024-02-04T09:37:01;96959.09;;;7.35;59.12
85105;BME280;75457;53.198;45.008;2024-02-04T09:39:26;96958.13;;;7.38;58.96
85105;BME280;75457;53.198;45.008;2024-02-04T09:41:53;96956.91;;;7.39;58.73
85105;BME280;75457;53.198;45.008;2024-02-04T09:44:20;96954.13;;;7.19;58.57
85105;BME280;75457;53.198;45.008;2024-02-04T09:46:47;96953.56;;;7.15;58.81
85105;BME280;75457;53.198;45.008;2024-02-04T09:49:14;96946.19;;;7.21;59.25
85105;BME280;75457;53.198;45.008;2024-02-04T09:51:40;96937.06;;;7.10;59.83
85105;BME280;75457;53.198;45.008;2024-02-04T09:54:10;96941.19;;;7.20;59.98
85105;BME280;75457;53.198;45.008;2024-02-04T09:56:37;96940.03;;;7.26;59.45
85105;BME280;75457;53.198;45.008;2024-02-04T09:59:04;96948.63;;;7.34;59.37
85105;BME280;75457;53.198;45.008;2024-02-04T10:01:29;96938.13;;;7.32;59.29
85105;BME280;75457;53.198;45.008;2024-02-04T10:03:56;96937.34;;;7.46;58.62
85105;BME280;75457;53.198;45.008;2024-02-04T10:06:23;96932.66;;;7.32;59.17
85105;BME280;75457;53.198;45.008;2024-02-04T10:08:49;96928.06;;;7.24;59.86
85105;BME280;75457;53.198;45.008;2024-02-04T10:11:14;96927.31;;;7.23;59.05
85105;BME280;75457;53.198;45.008;2024-02-04T10:13:45;96925.00;;;7.36;59.13
85105;BME280;75457;53.198;45.008;2024-02-04T10:16:11;96929.03;;;7.21;59.42
85105;BME280;75457;53.198;45.008;2024-02-04T10:18:37;96927.84;;;7.27;59.18
85105;BME280;75457;53.198;45.008;2024-02-04T10:21:02;96922.78;;;7.20;59.09
85105;BME280;75457;53.198;45.008;2024-02-04T10:23:29;96916.47;;;7.14;59.51
85105;BME280;75457;53.198;45.008;2024-02-04T10:25:58;96895.72;;;7.08;59.07
85105;BME280;75457;53.198;45.008;2024-02-04T10:28:24;96911.03;;;7.00;59.67
85105;BME280;75457;53.198;45.008;2024-02-04T10:30:50;96910.38;;;6.90;60.38
85105;BME280;75457;53.198;45.008;2024-02-04T10:33:15;96905.38;;;6.89;60.63
85105;BME280;75457;53.198;45.008;2024-02-04T10:35:42;96909.53;;;6.99;61.08
85105;BME280;75457;53.198;45.008;2024-02-04T10:38:08;96900.84;;;7.00;61.10
85105;BME280;75457;53.198;45.008;2024-02-04T10:40:35;96898.94;;;7.06;60.59
85105;BME280;75457;53.198;45.008;2024-02-04T10:43:04;96907.63;;;7.05;60.47
85105;BME280;75457;53.198;45.008;2024-02-04T10:45:32;96902.94;;;6.91;60.76
85105;BME280;75457;53.198;45.008;2024-02-04T10:48:00;96882.97;;;6.85;61.05
85105;BME280;75457;53.198;45.008;2024-02-04T10:50:27;96877.34;;;6.94;60.65
85105;BME280;75457;53.198;45.008;2024-02-04T10:52:55;96888.09;;;6.97;60.64
85105;BME280;75457;53.198;45.008;2024-02-04T10:55:26;96889.78;;;7.09;60.22
85105;BME280;75457;53.198;45.008;2024-02-04T10:57:53;96882.22;;;7.04;61.07
85105;BME280;75457;53.198;45.008;2024-02-04T11:00:20;96888.53;;;7.10;60.80
85105;BME280;75457;53.198;45.008;2024-02-04T11:02:46;96893.75;;;7.08;60.58
85105;BME280;75457;53.198;45.008;2024-02-04T11:05:12;96884.41;;;7.15;60.71
85105;BME280;75457;53.198;45.008;2024-02-04T11:07:39;96882.00;;;7.22;61.11
85105;BME280;75457;53.198;45.008;2024-02-04T11:10:05;96890.38;;;7.33;59.70
85105;BME280;75457;53.198;45.008;2024-02-04T11:12:33;96892.16;;;7.36;61.04
85105;BME280;75457;53.198;45.008;2024-02-04T11:15:05;96893.78;;;7.28;60.73
85105;BME280;75457;53.198;45.008;2024-02-04T11:18:11;96895.56;;;7.31;60.28
85105;BME280;75457;53.198;45.008;2024-02-04T11:20:54;96899.84;;;7.18;60.67
85105;BME280;75457;53.198;45.008;2024-02-04T11:23:35;96892.03;;;7.11;60.33
85105;BME280;75457;53.198;45.008;2024-02-04T11:26:01;96903.47;;;7.09;61.34
85105;BME280;75457;53.198;45.008;2024-02-04T11:28:29;96905.59;;;7.20;60.27
85105;BME280;75457;53.198;45.008;2024-02-04T11:30:56;96890.41;;;7.19;60.32
85105;BME280;75457;53.198;45.008;2024-02-04T11:33:22;96884.19;;;7.18;60.38
85105;BME280;75457;53.198;45.008;2024-02-04T11:35:58;96890.75;;;7.26;60.63
85105;BME280;75457;53.198;45.008;2024-02-04T11:38:29;96886.78;;;7.27;60.72
85105;BME280;75457;53.198;45.008;2024-02-04T11:40:55;96885.22;;;7.21;61.13
85105;BME280;75457;53.198;45.008;2024-02-04T11:43:23;96882.56;;;7.26;60.67
85105;BME280;75457;53.198;45.008;2024-02-04T11:45:51;96890.75;;;7.26;60.48
85105;BME280;75457;53.198;45.008;2024-02-04T11:48:19;96889.38;;;7.16;61.64
85105;BME280;75457;53.198;45.008;2024-02-04T11:50:52;96883.63;;;7.14;61.34
85105;BME280;75457;53.198;45.008;2024-02-04T11:53:18;96887.88;;;7.15;61.26
85105;BME280;75457;53.198;45.008;2024-02-04T11:55:45;96888.00;;;7.06;61.28
85105;BME280;75457;53.198;45.008;2024-02-04T11:58:11;96887.91;;;7.01;61.58
85105;BME280;75457;53.198;45.008;2024-02-04T12:00:37;96901.78;;;6.97;61.10
85105;BME280;75457;53.198;45.008;2024-02-04T12:03:04;96908.88;;;6.89;61.60
85105;BME280;75457;53.198;45.008;2024-02-04T12:05:33;96891.91;;;6.85;61.63
85105;BME280;75457;53.198;45.008;2024-02-04T12:07:59;96897.50;;;6.76;61.83
85105;BME280;75457;53.198;45.008;2024-02-04T12:10:26;96894.00;;;6.76;62.09
85105;BME280;75457;53.198;45.008;2024-02-04T12:12:52;96912.66;;;6.77;61.97
85105;BME280;75457;53.198;45.008;2024-02-04T12:15:18;96906.16;;;6.75;62.35
85105;BME280;75457;53.198;45.008;2024-02-04T12:17:43;96906.34;;;6.71;62.43
85105;BME280;75457;53.198;45.008;2024-02-04T12:20:10;96913.06;;;6.70;61.99
85105;BME280;75457;53.198;45.008;2024-02-04T12:22:37;96897.84;;;6.69;62.16
85105;BME280;75457;53.198;45.008;2024-02-04T12:25:03;96908.25;;;6.65;62.72
85105;BME280;75457;53.198;45.008;2024-02-04T12:27:29;96904.00;;;6.64;61.91
85105;BME280;75457;53.198;45.008;2024-02-04T12:30:01;96900.88;;;6.71;62.01
85105;BME280;75457;53.198;45.008;2024-02-04T12:32:27;96900.69;;;6.60;62.55
85105;BME280;75457;53.198;45.008;2024-02-04T12:34:52;96916.91;;;6.64;62.24
85105;BME280;75457;53.198;45.008;2024-02-04T12:37:18;96918.53;;;6.70;62.56
85105;BME280;75457;53.198;45.008;2024-02-04T12:39:45;96915.22;;;6.66;62.61
85105;BME280;75457;53.198;45.008;2024-02-04T12:42:10;96909.56;;;6.70;62.40
85105;BME280;75457;53.198;45.008;2024-02-04T12:44:36;96912.56;;;6.72;62.20
85105;BME280;75457;53.198;45.008;2024-02-04T12:47:02;96932.19;;;6.70;62.56
85105;BME280;75457;53.198;45.008;2024-02-04T12:49:27;96918.34;;;6.74;62.56
85105;BME280;75457;53.198;45.008;2024-02-04T12:52:04;96926.81;;;6.90;61.28
85105;BME280;75457;53.198;45.008;2024-02-04T12:54:29;96917.94;;;6.81;61.41
85105;BME280;75457;53.198;45.008;2024-02-04T12:56:56;96915.88;;;6.76;61.64
85105;BME280;75457;53.198;45.008;2024-02-04T12:59:26;96928.13;;;6.80;62.53